Time;durP1;ratioP1;P1;durP2;ratioP2;P2;SDS_P1;SDS_P2;PMS_P1;PMS_P2;Temp;Humidity;BMP_temperature;BMP_pressure;BME280_temperature;BME280_humidity;BME280_pressure;Samples;Min_cycle;Max_cycle;Signal;HPM_P1;HPM_P2
2021/01/14 00:01:28;;;;;;;6.55;3.88;;;;;;;-1.20;82.56;98519.38;5097165;28;20044;-71
2021/01/14 00:03:57;;;;;;;9.35;3.22;;;;;;;-0.48;83.01;98637.31;5096903;28;20068;-71
2021/01/14 00:06:25;;;;;;;5.93;3.17;;;;;;;-0.49;82.82;98628.94;5096819;28;20048;-70
2021/01/14 00:08:53;;;;;;;7.47;3.42;;;;;;;-0.58;82.86;98636.22;5096775;28;20040;-71
2021/01/14 00:11:21;;;;;;;8.07;4.82;;;;;;;-0.54;82.82;98622.94;5096678;28;20048;-71
2021/01/14 00:13:49;;;;;;;11.20;4.85;;;;;;;-0.55;82.81;98630.44;5096687;28;20131;-71
2021/01/14 00:16:17;;;;;;;8.57;4.30;;;;;;;-0.59;82.53;98619.47;5096566;28;20090;-71
2021/01/14 00:18:44;;;;;;;6.40;3.40;;;;;;;-0.60;82.65;98622.78;5096597;28;20047;-70
2021/01/14 00:21:12;;;;;;;6.82;3.45;;;;;;;-0.56;82.48;98624.56;5096507;28;20072;-71
2021/01/14 00:23:40;;;;;;;7.93;3.75;;;;;;;-0.59;82.29;98619.47;5096771;28;20071;-70
2021/01/14 00:26:08;;;;;;;6.68;3.97;;;;;;;-0.58;82.02;98616.19;5096448;28;20052;-71
2021/01/14 00:28:38;;;;;;;5.97;3.83;;;;;;;-0.61;82.24;98616.09;5096376;28;20119;-71
2021/01/14 00:31:06;;;;;;;10.10;5.10;;;;;;;-0.67;81.97;98604.25;5096348;28;20134;-71
2021/01/14 00:33:34;;;;;;;13.65;5.95;;;;;;;-0.66;82.20;98587.56;5096218;28;20032;-71
2021/01/14 00:36:01;;;;;;;13.95;6.05;;;;;;;-0.71;81.93;98609.13;5096514;28;20044;-70
2021/01/14 00:38:29;;;;;;;21.98;9.35;;;;;;;-0.81;82.21;98612.22;5096120;28;20408;-71
2021/01/14 00:40:56;;;;;;;22.27;9.52;;;;;;;-2.23;82.14;98368.22;5094950;28;20485;-71
2021/01/14 00:43:26;;;;;;;34.05;10.55;;;;;;;-0.88;82.56;98611.19;5096365;28;20047;-71
2021/01/14 00:45:54;;;;;;;29.92;9.98;;;;;;;-1.05;82.45;98582.34;5096056;28;20044;-70
2021/01/14 00:48:22;;;;;;;11.85;5.15;;;;;;;-0.85;82.66;98610.44;5095923;28;20048;-71
2021/01/14 00:50:50;;;;;;;23.73;8.07;;;;;;;-0.78;82.73;98602.28;5095708;28;20128;-71
2021/01/14 00:53:18;;;;;;;21.83;7.90;;;;;;;-0.76;82.96;98596.50;5095901;28;20126;-70
2021/01/14 00:55:45;;;;;;;16.92;6.30;;;;;;;-0.66;82.76;98597.59;5095794;28;20068;-70
2021/01/14 00:58:13;;;;;;;17.02;6.70;;;;;;;-0.78;82.87;98563.06;5096058;28;20036;-71
2021/01/14 01:00:41;;;;;;;27.95;11.68;;;;;;;-0.50;82.88;98589.63;5096063;28;20036;-71
2021/01/14 01:03:10;;;;;;;12.93;5.90;;;;;;;-0.44;82.20;98589.81;5095689;28;20398;-71
2021/01/14 01:05:37;;;;;;;11.73;5.82;;;;;;;-0.40;81.90;98586.56;5095595;28;20051;-71
2021/01/14 01:08:05;;;;;;;11.18;6.30;;;;;;;-0.37;81.93;98580.78;5095177;28;20054;-71
2021/01/14 01:10:33;;;;;;;8.35;3.97;;;;;;;-0.38;81.77;98574.91;5095536;28;20502;-71
2021/01/14 01:13:01;;;;;;;10.75;4.35;;;;;;;-0.40;81.54;98565.66;5095508;28;20044;-71
2021/01/14 01:15:30;;;;;;;6.63;3.95;;;;;;;-0.45;81.33;98568.06;5095346;28;20039;-71
2021/01/14 01:17:58;;;;;;;9.02;4.72;;;;;;;-0.53;81.32;98569.53;5095716;28;20044;-71
2021/01/14 01:20:27;;;;;;;9.02;5.13;;;;;;;-0.57;81.42;98572.75;5095317;28;20405;-71
2021/01/14 01:22:56;;;;;;;9.38;4.95;;;;;;;-0.55;81.40;98571.13;5095370;28;20033;-71
2021/01/14 01:25:24;;;;;;;7.68;3.65;;;;;;;-0.57;81.58;98576.91;5095213;28;20459;-71
2021/01/14 01:27:52;;;;;;;8.55;4.20;;;;;;;-0.61;81.20;98570.16;5095497;28;20394;-71
2021/01/14 01:30:20;;;;;;;9.50;4.03;;;;;;;-0.65;81.06;98559.22;5095430;28;20050;-71
2021/01/14 01:32:50;;;;;;;7.95;3.88;;;;;;;-0.64;80.79;98555.03;5095183;28;20072;-71
2021/01/14 01:35:18;;;;;;;5.72;3.50;;;;;;;-0.65;81.32;98554.22;5094946;28;20040;-71
2021/01/14 01:37:48;;;;;;;7.25;4.07;;;;;;;-0.62;81.18;98549.25;5095038;28;20456;-71
2021/01/14 01:40:16;;;;;;;7.55;4.07;;;;;;;-0.63;81.23;98552.59;5094921;28;20444;-71
2021/01/14 01:42:44;;;;;;;7.90;4.07;;;;;;;-0.61;81.21;98540.94;5094844;28;20402;-71
2021/01/14 01:45:12;;;;;;;6.47;3.15;;;;;;;-0.58;81.08;98533.50;5094906;28;20051;-71
2021/01/14 01:47:41;;;;;;;5.78;3.20;;;;;;;-0.52;81.02;98536.16;5095141;28;20043;-72
2021/01/14 01:50:10;;;;;;;6.88;3.22;;;;;;;-0.46;80.76;98530.44;5095112;28;20036;-71
2021/01/14 01:52:37;;;;;;;8.00;3.17;;;;;;;-0.47;80.93;98527.09;5094514;28;20055;-71
2021/01/14 01:55:08;;;;;;;5.85;3.15;;;;;;;-0.47;80.83;98524.59;5093447;28;20043;-71
2021/01/14 01:57:36;;;;;;;5.85;3.60;;;;;;;-0.49;81.04;98513.69;5094670;28;20074;-71
2021/01/14 02:00:04;;;;;;;9.95;3.70;;;;;;;-0.47;80.80;98512.06;5093675;28;20397;-71
2021/01/14 02:02:33;;;;;;;8.63;3.75;;;;;;;-0.48;81.08;98512.84;5094561;28;20390;-71
2021/01/14 02:05:00;;;;;;;10.25;4.63;;;;;;;-0.52;80.72;98513.59;5094577;28;20048;-71
2021/01/14 02:07:51;;;;;;;7.72;4.15;;;;;;;-0.57;81.21;98512.63;5094437;28;20043;-71
2021/01/14 02:10:25;;;;;;;9.07;4.38;;;;;;;-0.67;81.41;98494.03;5094447;28;20048;-71
2021/01/14 02:13:03;;;;;;;9.85;4.32;;;;;;;-0.70;81.69;98485.63;5094414;28;20044;-71
2021/01/14 02:15:32;;;;;;;7.13;3.65;;;;;;;-0.63;81.74;98501.63;5094325;28;20047;-71
2021/01/14 02:18:00;;;;;;;8.02;4.07;;;;;;;-0.65;81.69;98508.28;5094271;28;20060;-72
2021/01/14 02:20:31;;;;;;;9.82;4.20;;;;;;;-0.75;82.19;98482.16;5093548;28;20055;-71
2021/01/14 02:23:04;;;;;;;8.02;3.75;;;;;;;-0.62;82.32;98500.84;5094247;28;20056;-71
2021/01/14 02:25:46;;;;;;;8.77;4.15;;;;;;;-0.64;82.31;98487.41;5094560;28;20048;-72
2021/01/14 02:28:14;;;;;;;8.90;4.22;;;;;;;-0.63;82.66;98482.44;5094179;28;20060;-71
2021/01/14 02:30:42;;;;;;;10.40;4.30;;;;;;;-0.59;82.83;98479.19;5094043;28;20093;-71
2021/01/14 02:33:13;;;;;;;7.60;3.42;;;;;;;-0.55;82.93;98478.44;5094102;28;20040;-71
2021/01/14 02:35:41;;;;;;;6.63;3.45;;;;;;;-0.49;82.85;98477.75;5093952;28;20131;-71
2021/01/14 02:38:09;;;;;;;8.05;3.20;;;;;;;-0.43;83.28;98471.22;5094003;28;20126;-71
2021/01/14 02:40:37;;;;;;;7.25;3.28;;;;;;;-0.31;82.75;98471.50;5094187;28;20036;-71
2021/01/14 02:43:05;;;;;;;5.43;2.80;;;;;;;-0.18;82.09;98468.44;5093953;28;20044;-72
2021/01/14 02:45:35;;;;;;;4.63;2.42;;;;;;;-0.05;81.99;98470.41;5093859;28;20040;-70
2021/01/14 02:48:04;;;;;;;6.72;3.10;;;;;;;-0.14;81.93;98441.78;5093847;28;20394;-71
2021/01/14 02:50:38;;;;;;;4.55;2.40;;;;;;;0.10;81.94;98469.06;5093546;28;20405;-72
2021/01/14 02:53:07;;;;;;;7.32;3.75;;;;;;;0.13;81.56;98474.09;5093873;28;20048;-71
2021/01/14 02:55:36;;;;;;;6.43;2.67;;;;;;;-1.38;82.33;98217.06;5093954;28;20547;-71
2021/01/14 02:58:03;;;;;;;5.35;2.65;;;;;;;0.19;82.30;98481.78;5093780;28;20052;-71
2021/01/14 03:00:33;;;;;;;6.15;2.88;;;;;;;0.05;82.58;98461.41;5093642;28;20050;-71
2021/01/14 03:03:00;;;;;;;;;;;;;;;0.04;83.96;98477.28;5094085;28;20052;-71
2021/01/14 03:05:28;;;;;;;5.05;2.63;;;;;;;0.02;85.09;98473.03;5093910;28;19965;-71
2021/01/14 03:07:56;;;;;;;9.10;3.60;;;;;;;-0.05;85.36;98475.41;5093657;28;20036;-71
2021/01/14 03:10:24;;;;;;;5.53;3.22;;;;;;;-0.05;86.07;98465.38;5093652;28;20040;-71
2021/01/14 03:12:51;;;;;;;6.50;2.83;;;;;;;-0.06;86.37;98458.69;5093583;28;20063;-71
2021/01/14 03:15:19;;;;;;;6.43;3.20;;;;;;;-0.08;87.21;98459.47;5093503;28;20044;-71
2021/01/14 03:17:49;;;;;;;6.45;3.17;;;;;;;-0.10;86.93;98453.59;5093471;28;20093;-71
2021/01/14 03:20:17;;;;;;;7.18;3.15;;;;;;;-0.11;87.35;98450.22;5093604;28;20052;-71
2021/01/14 03:22:45;;;;;;;6.50;3.35;;;;;;;-0.11;87.80;98447.72;5093797;28;20048;-71
2021/01/14 03:25:13;;;;;;;6.57;3.80;;;;;;;-0.09;87.79;98445.22;5093750;28;20052;-72
2021/01/14 03:27:42;;;;;;;5.72;3.22;;;;;;;-0.14;87.99;98437.63;5092244;28;20090;-72
2021/01/14 03:30:14;;;;;;;7.18;3.70;;;;;;;-0.16;87.73;98436.75;5094106;28;20040;-71
2021/01/14 03:32:43;;;;;;;6.35;3.53;;;;;;;-0.18;88.31;98433.38;5097480;28;20174;-71
2021/01/14 03:35:13;;;;;;;8.18;3.58;;;;;;;-0.20;88.46;98432.50;5097669;28;20087;-72
2021/01/14 03:37:42;;;;;;;7.25;4.00;;;;;;;-0.22;88.54;98430.75;5097322;28;20044;-71
2021/01/14 03:40:11;;;;;;;6.95;3.95;;;;;;;-0.25;88.52;98436.56;5097334;28;20048;-71
2021/01/14 03:42:39;;;;;;;;;;;;;;;-0.35;88.97;98429.66;5098053;28;20089;-72
2021/01/14 03:45:07;;;;;;;9.50;4.13;;;;;;;-0.39;88.72;98427.91;5097470;28;19931;-71
2021/01/14 03:47:36;;;;;;;8.90;4.50;;;;;;;-0.42;89.07;98421.94;5097513;28;20048;-71
2021/01/14 03:50:07;;;;;;;10.68;4.43;;;;;;;-0.44;88.98;98424.44;5097130;28;20052;-72
2021/01/14 03:52:35;;;;;;;8.63;4.65;;;;;;;-0.46;89.17;98426.06;5097048;28;20106;-71
2021/01/14 03:55:04;;;;;;;7.73;3.93;;;;;;;-0.47;89.60;98428.53;5096936;28;20516;-72
2021/01/14 03:57:36;;;;;;;9.85;5.18;;;;;;;-0.47;89.19;98426.88;5095623;28;20280;-72
2021/01/14 04:00:06;;;;;;;9.82;5.28;;;;;;;-0.50;89.16;98423.44;5096930;28;20052;-72
2021/01/14 04:02:39;;;;;;;11.35;5.55;;;;;;;-0.46;89.27;98421.06;5096943;28;20052;-72
2021/01/14 04:05:09;;;;;;;14.48;5.97;;;;;;;-0.41;89.46;98429.53;5095573;28;20072;-72
2021/01/14 04:07:38;;;;;;;9.77;5.18;;;;;;;-0.44;89.36;98424.44;5096751;28;20052;-71
2021/01/14 04:10:07;;;;;;;9.68;4.47;;;;;;;-0.44;89.45;98424.44;5096687;28;20039;-72
2021/01/14 04:12:34;;;;;;;10.27;5.50;;;;;;;-0.47;89.44;98424.38;5096738;28;20052;-71
2021/01/14 04:15:03;;;;;;;8.20;4.20;;;;;;;-0.48;89.21;98430.16;5096804;28;20036;-71
2021/01/14 04:17:30;;;;;;;10.80;5.43;;;;;;;-0.48;89.70;98422.66;5095700;28;20036;-71
2021/01/14 04:19:58;;;;;;;9.55;5.18;;;;;;;-0.48;89.72;98411.81;5096577;28;20055;-72
2021/01/14 04:22:27;;;;;;;9.93;4.90;;;;;;;-0.58;89.71;98392.38;5062385;28;20054;-71
2021/01/14 04:25:02;;;;;;;10.80;5.10;;;;;;;-0.48;89.79;98414.31;5096405;28;20058;-71
2021/01/14 04:27:30;;;;;;;11.55;5.38;;;;;;;-0.49;89.89;98410.09;5096354;28;20440;-71
2021/01/14 04:30:00;;;;;;;13.32;5.90;;;;;;;-0.49;89.91;98410.97;5096352;28;20040;-72
2021/01/14 04:32:31;;;;;;;11.35;5.28;;;;;;;-0.47;89.92;98413.50;5096332;28;20067;-72
2021/01/14 04:35:00;;;;;;;12.40;5.03;;;;;;;-0.45;90.08;98420.22;5096216;28;20517;-71
2021/01/14 04:37:29;;;;;;;11.55;6.43;;;;;;;-0.43;90.06;98428.63;5096182;28;20044;-72
2021/01/14 04:39:58;;;;;;;13.60;6.15;;;;;;;-0.38;90.46;98426.22;5096117;28;20043;-72
2021/01/14 04:42:29;;;;;;;11.70;6.32;;;;;;;-0.36;90.22;98432.94;5094115;28;20490;-71
2021/01/14 04:44:58;;;;;;;11.95;5.93;;;;;;;-0.34;90.14;98436.38;5096119;28;20048;-72
2021/01/14 04:47:30;;;;;;;11.77;5.57;;;;;;;-0.32;90.48;98433.88;5061186;28;20052;-71
2021/01/14 04:49:58;;;;;;;10.85;5.75;;;;;;;-0.31;90.19;98430.56;5096045;28;20048;-72
2021/01/14 04:52:30;;;;;;;12.77;5.47;;;;;;;-0.30;90.05;98427.22;5095695;28;20497;-72
2021/01/14 04:55:02;;;;;;;12.52;5.88;;;;;;;-0.32;90.25;98429.72;5094660;28;20459;-72
2021/01/14 04:57:30;;;;;;;10.73;5.50;;;;;;;-0.42;90.26;98406.91;5094643;28;20056;-72
2021/01/14 05:00:02;;;;;;;13.25;6.30;;;;;;;-0.75;90.00;98367.81;5095775;28;20508;-72
2021/01/14 05:02:39;;;;;;;14.85;6.90;;;;;;;-0.36;90.39;98435.47;5095747;28;20064;-72
2021/01/14 05:05:12;;;;;;;11.57;5.47;;;;;;;-0.43;90.27;98421.09;5095777;28;20047;-72
2021/01/14 05:07:47;;;;;;;11.20;5.90;;;;;;;-0.32;90.51;98444.75;5095697;28;20044;-71
2021/01/14 05:10:22;;;;;;;12.50;6.13;;;;;;;-0.29;90.58;98444.78;5095631;28;20059;-72
2021/01/14 05:12:55;;;;;;;12.95;6.50;;;;;;;-0.23;90.17;98454.13;5094394;28;20044;-72
2021/01/14 05:15:25;;;;;;;12.23;5.68;;;;;;;-0.30;90.52;98443.13;5095457;28;20066;-72
2021/01/14 05:17:53;;;;;;;15.18;6.70;;;;;;;-0.43;90.74;98415.28;5095486;28;20040;-72
2021/01/14 05:20:22;;;;;;;14.38;6.40;;;;;;;-0.19;90.26;98446.69;5095674;28;20048;-72
2021/01/14 05:22:52;;;;;;;11.98;6.20;;;;;;;-0.17;90.58;98440.03;5095366;28;20054;-72
2021/01/14 05:25:20;;;;;;;12.38;6.00;;;;;;;-0.13;90.50;98441.84;5095580;28;20121;-72
2021/01/14 05:27:48;;;;;;;12.25;6.32;;;;;;;-0.11;90.83;98450.22;5095255;28;20481;-72
2021/01/14 05:30:17;;;;;;;11.63;5.85;;;;;;;-0.09;90.33;98457.75;5095188;28;20490;-72
2021/01/14 05:32:46;;;;;;;12.20;5.83;;;;;;;-0.08;89.94;98457.81;5044392;28;20482;-71
2021/01/14 05:35:27;;;;;;;14.20;6.45;;;;;;;-0.05;90.06;98460.38;5095043;28;20066;-72
2021/01/14 05:38:00;;;;;;;11.93;5.50;;;;;;;-0.04;89.89;98452.03;5095195;28;20051;-72
2021/01/14 05:40:30;;;;;;;11.45;6.18;;;;;;;-0.05;89.87;98450.34;5095351;28;20071;-72
2021/01/14 05:43:07;;;;;;;11.52;6.15;;;;;;;-0.01;89.68;98447.09;5094926;28;20131;-72
2021/01/14 05:45:37;;;;;;;8.82;4.90;;;;;;;-0.01;89.54;98459.63;5094898;28;20059;-72
2021/01/14 05:48:10;;;;;;;9.38;4.93;;;;;;;0.02;89.26;98465.53;5094902;28;20056;-72
2021/01/14 05:50:43;;;;;;;10.68;5.03;;;;;;;0.00;89.41;98465.50;5094499;28;20051;-71
2021/01/14 05:53:16;;;;;;;11.07;5.10;;;;;;;-0.06;88.95;98453.69;5094787;28;20072;-71
2021/01/14 05:55:52;;;;;;;8.00;4.63;;;;;;;-0.15;88.86;98468.53;5093930;28;20085;-72
2021/01/14 05:58:21;;;;;;;9.40;4.50;;;;;;;-0.25;88.64;98469.13;5094686;28;20043;-72
2021/01/14 06:00:49;;;;;;;9.60;4.90;;;;;;;-0.30;88.57;98472.34;5094542;28;20044;-71
2021/01/14 06:03:25;;;;;;;12.55;5.00;;;;;;;-0.34;88.47;98471.44;5094745;28;20545;-71
2021/01/14 06:05:53;;;;;;;7.70;4.30;;;;;;;-0.35;88.49;98474.75;5094796;28;20470;-72
2021/01/14 06:08:22;;;;;;;6.03;3.42;;;;;;;-0.36;88.27;98477.22;5093284;28;20127;-71
2021/01/14 06:10:52;;;;;;;5.07;2.85;;;;;;;-0.41;87.93;98477.13;5094453;28;20131;-72
2021/01/14 06:13:19;;;;;;;8.73;3.70;;;;;;;-0.34;87.93;98485.63;5094372;28;20375;-71
2021/01/14 06:15:58;;;;;;;5.07;2.60;;;;;;;-0.28;87.06;98486.59;5094570;28;20044;-72
2021/01/14 06:18:26;;;;;;;6.10;2.42;;;;;;;-0.20;86.15;98495.16;5094409;28;20123;-71
2021/01/14 06:20:54;;;;;;;4.78;2.80;;;;;;;-0.20;85.78;98500.16;5094541;28;20036;-71
2021/01/14 06:23:23;;;;;;;13.52;6.18;;;;;;;-0.27;85.07;98493.31;5092929;28;20050;-72
2021/01/14 06:25:54;;;;;;;14.40;7.43;;;;;;;-0.20;85.05;98509.34;5094196;28;20127;-71
2021/01/14 06:28:32;;;;;;;8.43;5.00;;;;;;;-0.25;84.84;98499.22;5094106;28;20402;-72
2021/01/14 06:31:02;;;;;;;;;;;;;;;-0.29;84.44;98504.94;5094572;28;20067;-71
2021/01/14 06:33:30;;;;;;;6.03;3.20;;;;;;;-0.38;84.24;98509.75;5094042;28;20389;-71
2021/01/14 06:36:07;;;;;;;3.60;2.13;;;;;;;-0.44;84.14;98513.78;5093141;28;20055;-72
2021/01/14 06:38:44;;;;;;;4.75;2.50;;;;;;;-0.41;83.97;98524.75;5092837;28;20059;-72
2021/01/14 06:41:16;;;;;;;6.50;2.60;;;;;;;-0.44;83.55;98522.16;5094038;28;20383;-71
2021/01/14 06:43:45;;;;;;;3.90;2.58;;;;;;;-0.49;83.45;98526.22;5094132;28;20059;-72
2021/01/14 06:46:16;;;;;;;5.03;2.30;;;;;;;-0.49;82.52;98526.22;5094187;28;20127;-71
2021/01/14 06:48:49;;;;;;;5.00;2.13;;;;;;;-0.51;82.56;98526.97;5092638;28;20160;-72
2021/01/14 06:51:23;;;;;;;6.13;2.30;;;;;;;-0.53;82.08;98524.44;5093532;28;20052;-71
2021/01/14 06:53:57;;;;;;;5.50;3.08;;;;;;;-0.53;81.63;98524.44;5093821;28;20044;-71
2021/01/14 06:56:34;;;;;;;7.00;2.83;;;;;;;-0.59;81.41;98531.81;5093700;28;20067;-72
2021/01/14 06:59:07;;;;;;;6.13;2.30;;;;;;;-0.63;81.20;98540.06;5093834;28;20128;-71
2021/01/14 07:01:45;;;;;;;4.55;2.00;;;;;;;-0.56;80.52;98533.53;5093819;28;20052;-72
2021/01/14 07:04:32;;;;;;;4.90;1.90;;;;;;;-0.46;80.29;98545.47;5094087;28;20048;-71
2021/01/14 07:07:20;;;;;;;4.15;2.38;;;;;;;-0.40;79.70;98556.50;5093375;28;20378;-71
2021/01/14 07:10:03;;;;;;;3.90;1.98;;;;;;;-0.42;79.21;98558.13;5093898;28;20454;-71
2021/01/14 07:12:38;;;;;;;6.45;2.50;;;;;;;-0.25;79.07;98571.03;5092497;28;20044;-72
2021/01/14 07:15:08;;;;;;;6.32;2.92;;;;;;;-0.33;78.83;98577.53;5093509;28;20051;-72
2021/01/14 07:17:39;;;;;;;6.47;2.90;;;;;;;-0.43;78.48;98576.44;5092412;28;20485;-71
2021/01/14 07:20:19;;;;;;;6.32;2.30;;;;;;;-0.54;78.92;98577.84;5093608;28;20048;-72
2021/01/14 07:22:51;;;;;;;9.35;3.17;;;;;;;-0.57;78.70;98582.78;5093543;28;20071;-72
2021/01/14 07:25:20;;;;;;;5.70;2.38;;;;;;;-0.56;78.73;98579.47;5093545;28;20060;-71
2021/01/14 07:27:52;;;;;;;7.22;3.40;;;;;;;-0.70;78.91;98585.81;5093452;28;20044;-71
2021/01/14 07:30:20;;;;;;;7.32;3.50;;;;;;;-0.71;79.13;98589.09;5093934;28;20052;-72
2021/01/14 07:32:54;;;;;;;9.48;4.18;;;;;;;-0.69;79.38;98588.34;5093438;28;20048;-71
2021/01/14 07:35:34;;;;;;;10.60;4.53;;;;;;;-0.67;79.19;98588.38;5093403;28;20055;-71
2021/01/14 07:38:02;;;;;;;7.53;3.58;;;;;;;-0.79;79.18;98588.03;5093282;28;20056;-72
2021/01/14 07:40:31;;;;;;;5.22;2.60;;;;;;;-0.77;79.55;98574.75;5093254;28;20067;-71
2021/01/14 07:43:02;;;;;;;4.28;2.20;;;;;;;-0.41;79.17;98579.88;5093267;28;20122;-71
2021/01/14 07:45:36;;;;;;;6.22;1.85;;;;;;;-0.41;79.09;98579.88;5093363;28;20409;-71
2021/01/14 07:48:19;;;;;;;4.07;2.30;;;;;;;-0.51;78.55;98580.44;5093223;28;20067;-71
2021/01/14 07:50:55;;;;;;;11.50;4.05;;;;;;;-0.71;78.57;98564.91;5092997;28;20109;-71
2021/01/14 07:53:24;;;;;;;13.88;5.47;;;;;;;-0.72;78.36;98577.41;5093168;28;20059;-72
2021/01/14 07:55:52;;;;;;;5.50;2.50;;;;;;;-0.90;78.28;98581.94;5093000;28;20439;-71
2021/01/14 07:58:25;;;;;;;4.10;1.83;;;;;;;-0.59;78.00;98568.53;5093123;28;20375;-72
2021/01/14 08:00:59;;;;;;;3.53;1.85;;;;;;;-0.06;77.58;98583.19;5093217;28;20047;-71
2021/01/14 08:03:31;;;;;;;;;;;;;;;0.44;76.69;98581.81;5092273;28;20044;-71
2021/01/14 08:06:00;;;;;;;3.22;1.80;;;;;;;0.75;75.41;98589.16;5093169;28;19924;-70
2021/01/14 08:08:29;;;;;;;3.50;1.92;;;;;;;0.74;75.24;98594.16;5081259;28;20482;-70
2021/01/14 08:11:11;;;;;;;3.35;1.75;;;;;;;0.49;74.37;98595.28;5072920;28;20055;-70
2021/01/14 08:14:00;;;;;;;4.45;2.42;;;;;;;0.54;74.30;98591.22;5092792;28;20048;-70
2021/01/14 08:16:34;;;;;;;7.40;2.80;;;;;;;0.56;73.49;98589.59;5093059;28;20406;-70
2021/01/14 08:19:11;;;;;;;4.63;2.10;;;;;;;0.74;72.88;98596.66;5096181;28;20052;-69
2021/01/14 08:21:39;;;;;;;4.85;1.90;;;;;;;0.84;72.67;98608.59;5078112;28;20410;-69
2021/01/14 08:24:32;;;;;;;4.70;2.30;;;;;;;1.14;71.79;98589.94;5076556;28;20048;-69
2021/01/14 08:27:02;;;;;;;6.50;2.45;;;;;;;1.59;71.25;98599.09;5076819;28;20501;-69
2021/01/14 08:29:31;;;;;;;7.18;2.95;;;;;;;1.59;70.14;98609.13;5076182;28;20444;-69
2021/01/14 08:32:00;;;;;;;;;;;;;;;1.28;69.80;98618.66;5093252;28;20044;-69
2021/01/14 08:34:50;;;;;;;6.00;3.10;;;;;;;1.13;70.11;98623.38;5083502;28;19920;-69
2021/01/14 08:37:29;;;;;;;6.03;3.25;;;;;;;0.98;70.45;98629.78;5089154;28;20076;-70
2021/01/14 08:40:00;;;;;;;12.20;7.32;;;;;;;0.74;70.86;98617.59;5094119;28;20123;-70
2021/01/14 08:42:37;;;;;;;4.80;2.50;;;;;;;0.71;70.89;98637.59;5095118;28;20048;-70
2021/01/14 08:45:10;;;;;;;5.57;2.33;;;;;;;1.04;70.64;98638.28;5075611;28;20044;-69
2021/01/14 08:48:01;;;;;;;4.68;2.10;;;;;;;1.49;70.25;98642.50;5075704;28;20071;-69
2021/01/14 08:50:43;;;;;;;5.82;1.88;;;;;;;1.76;67.55;98648.00;5075745;28;20071;-67
2021/01/14 08:53:12;;;;;;;7.65;3.10;;;;;;;1.91;67.75;98653.28;5075997;28;20068;-67
2021/01/14 08:55:40;;;;;;;7.88;2.75;;;;;;;1.60;67.34;98630.97;5075585;28;20040;-66
2021/01/14 08:58:10;;;;;;;4.88;2.60;;;;;;;1.62;67.59;98669.53;5075650;28;20107;-67
2021/01/14 09:00:47;;;;;;;5.63;2.85;;;;;;;1.54;67.58;98681.13;5075604;28;20494;-68
2021/01/14 09:03:18;;;;;;;8.82;4.63;;;;;;;1.73;67.75;98693.19;5088183;28;20119;-69
2021/01/14 09:05:46;;;;;;;13.40;5.18;;;;;;;1.93;67.45;98687.72;5077345;28;20059;-71
2021/01/14 09:08:17;;;;;;;13.43;6.28;;;;;;;2.04;67.40;98693.75;5093240;28;20058;-70
2021/01/14 09:10:50;;;;;;;13.48;6.05;;;;;;;2.14;66.78;98687.22;5095603;28;20051;-71
2021/01/14 09:13:23;;;;;;;8.65;4.10;;;;;;;1.90;66.63;98694.34;5095627;28;20036;-71
2021/01/14 09:15:53;;;;;;;4.43;2.17;;;;;;;1.97;66.14;98699.53;5095416;28;20115;-71
2021/01/14 09:18:31;;;;;;;4.60;2.33;;;;;;;1.91;65.67;98693.53;5094278;28;20078;-71
2021/01/14 09:21:01;;;;;;;4.50;2.50;;;;;;;2.03;66.29;98708.84;5095572;28;20058;-70
2021/01/14 09:23:33;;;;;;;5.22;2.50;;;;;;;1.87;65.49;98711.94;5095390;28;20044;-70
2021/01/14 09:26:10;;;;;;;4.80;2.50;;;;;;;1.80;65.45;98722.69;5095358;28;20052;-69
2021/01/14 09:28:41;;;;;;;9.52;4.18;;;;;;;1.79;65.08;98719.34;5094964;28;20093;-70
2021/01/14 09:31:14;;;;;;;10.68;5.03;;;;;;;1.86;65.73;98730.34;5095223;28;20044;-70
2021/01/14 09:33:45;;;;;;;24.20;9.40;;;;;;;1.85;66.65;98737.03;5095086;28;20123;-70
2021/01/14 09:36:15;;;;;;;28.67;12.63;;;;;;;1.68;66.27;98740.91;5095016;28;20036;-69
2021/01/14 09:38:48;;;;;;;27.50;10.97;;;;;;;1.08;66.85;98686.94;5083991;28;20128;-70
2021/01/14 09:41:24;;;;;;;23.52;8.68;;;;;;;1.48;67.90;98743.84;5074728;28;20045;-69
2021/01/14 09:44:05;;;;;;;25.23;9.80;;;;;;;1.53;68.14;98759.88;5073703;28;20044;-69
2021/01/14 09:46:36;;;;;;;15.30;7.50;;;;;;;1.39;67.66;98756.25;5074680;28;20109;-70
2021/01/14 09:49:07;;;;;;;20.27;9.32;;;;;;;1.46;67.08;98768.13;5074590;28;20131;-69
2021/01/14 09:51:36;;;;;;;28.52;12.57;;;;;;;1.93;66.87;98763.19;5074293;28;20048;-69
2021/01/14 09:54:05;;;;;;;19.48;8.75;;;;;;;1.91;67.21;98758.94;5074483;28;20045;-68
2021/01/14 09:56:35;;;;;;;16.38;8.02;;;;;;;2.29;66.45;98747.03;5074445;28;20094;-68
2021/01/14 09:59:08;;;;;;;11.82;4.30;;;;;;;2.78;65.79;98753.69;5074427;28;20510;-68
2021/01/14 10:01:42;;;;;;;10.95;6.20;;;;;;;3.00;65.59;98750.66;5074678;28;20115;-68
2021/01/14 10:04:13;;;;;;;10.00;4.80;;;;;;;3.04;64.13;98717.97;5074317;28;20056;-68
2021/01/14 10:06:45;;;;;;;5.68;3.00;;;;;;;3.21;62.97;98740.88;5073072;28;20464;-69
2021/01/14 10:09:15;;;;;;;6.63;2.90;;;;;;;3.38;63.63;98747.81;5074471;28;20128;-70
2021/01/14 10:11:45;;;;;;;3.45;2.10;;;;;;;3.53;62.42;98752.19;5074100;28;20402;-69
2021/01/14 10:14:18;;;;;;;4.20;2.45;;;;;;;3.64;62.14;98737.19;5072882;28;20509;-69
2021/01/14 10:16:48;;;;;;;7.95;3.78;;;;;;;3.83;62.16;98737.41;5074279;28;20054;-69
2021/01/14 10:19:20;;;;;;;6.45;2.70;;;;;;;4.02;61.33;98735.91;5074013;28;20514;-68
2021/01/14 10:21:49;;;;;;;9.82;4.43;;;;;;;4.10;61.87;98746.09;5073962;28;20048;-69
2021/01/14 10:24:25;;;;;;;6.30;2.22;;;;;;;4.04;61.05;98730.06;5073953;28;20040;-68
2021/01/14 10:27:11;;;;;;;4.32;2.55;;;;;;;3.56;61.67;98744.66;5073962;28;20418;-68
2021/01/14 10:29:39;;;;;;;4.93;2.17;;;;;;;3.58;61.20;98734.59;5073914;28;20486;-68
2021/01/14 10:32:08;;;;;;;4.30;2.15;;;;;;;3.62;61.54;98713.63;5073783;28;20048;-68
2021/01/14 10:34:42;;;;;;;5.95;2.63;;;;;;;3.85;60.84;98737.41;5073829;28;20537;-69
2021/01/14 10:37:21;;;;;;;5.60;2.70;;;;;;;3.97;60.57;98751.03;5073699;28;20398;-68
2021/01/14 10:39:54;;;;;;;5.10;2.45;;;;;;;4.03;60.45;98743.50;5073323;28;20068;-68
2021/01/14 10:42:27;;;;;;;5.15;2.22;;;;;;;4.14;60.13;98747.81;5073648;28;20087;-68
2021/01/14 10:44:54;;;;;;;2.90;1.75;;;;;;;4.22;59.30;98748.75;5073776;28;20041;-68
2021/01/14 10:47:23;;;;;;;4.60;2.00;;;;;;;4.13;58.77;98754.53;5073625;28;20113;-67
2021/01/14 10:49:52;;;;;;;3.33;2.00;;;;;;;4.29;59.12;98758.06;5079003;28;20806;-70
2021/01/14 10:52:19;;;;;;;5.03;2.20;;;;;;;4.39;57.58;98753.09;5081654;28;20379;-67
2021/01/14 10:55:00;;;;;;;2.95;1.77;;;;;;;4.28;57.42;98762.25;5084416;28;20040;-68
2021/01/14 10:57:48;;;;;;;3.47;1.80;;;;;;;4.37;57.23;98771.59;5084788;28;20047;-67
2021/01/14 11:00:17;;;;;;;5.15;2.78;;;;;;;4.77;57.14;98771.09;5093450;28;20490;-68
2021/01/14 11:02:45;;;;;;;3.92;2.17;;;;;;;4.94;57.01;98779.66;5093052;28;20109;-68
2021/01/14 11:05:15;;;;;;;6.20;2.42;;;;;;;4.78;57.13;98776.97;5092563;28;20493;-68
2021/01/14 11:07:44;;;;;;;;;;;;;;;4.78;56.35;98792.16;5074905;28;20049;-68
2021/01/14 11:10:13;;;;;;;3.45;1.77;;;;;;;4.35;56.78;98801.03;5081414;28;20361;-68
2021/01/14 11:13:02;;;;;;;4.43;1.95;;;;;;;3.99;56.99;98812.44;5093607;28;20501;-69
2021/01/14 11:15:30;;;;;;;4.07;1.42;;;;;;;3.84;58.04;98807.22;5093541;28;20070;-68
2021/01/14 11:18:03;;;;;;;2.22;1.23;;;;;;;3.64;58.78;98813.72;5093450;28;20271;-68
2021/01/14 11:20:33;;;;;;;2.95;1.55;;;;;;;3.40;59.36;98815.94;5073888;28;20045;-68
2021/01/14 11:23:01;;;;;;;3.40;1.80;;;;;;;3.34;59.19;98808.25;5073189;28;20544;-68
2021/01/14 11:25:30;;;;;;;4.22;2.40;;;;;;;3.35;60.41;98817.53;5073151;28;20841;-68
2021/01/14 11:28:00;;;;;;;3.65;1.95;;;;;;;3.38;60.00;98815.06;5073269;28;20045;-69
2021/01/14 11:30:29;;;;;;;8.97;2.57;;;;;;;3.24;60.83;98786.25;5086333;28;20072;-69
2021/01/14 11:32:57;;;;;;;4.15;2.10;;;;;;;3.45;61.15;98824.41;5093374;28;20422;-69
2021/01/14 11:35:25;;;;;;;3.65;2.30;;;;;;;3.21;61.45;98829.09;5093281;28;20048;-69
2021/01/14 11:37:54;;;;;;;4.60;2.70;;;;;;;3.07;61.92;98821.31;5093264;28;20044;-69
2021/01/14 11:40:23;;;;;;;3.20;1.83;;;;;;;3.00;62.64;98828.78;5093309;28;20052;-68
2021/01/14 11:42:50;;;;;;;4.53;2.30;;;;;;;3.00;62.55;98816.19;5093266;28;20492;-69
2021/01/14 11:45:18;;;;;;;3.97;2.10;;;;;;;3.24;62.56;98816.53;5093565;28;20039;-69
2021/01/14 11:47:46;;;;;;;3.92;2.35;;;;;;;3.34;61.83;98823.38;5093168;28;20119;-69
2021/01/14 11:50:14;;;;;;;4.82;3.28;;;;;;;3.72;60.49;98827.25;5093280;28;20093;-68
2021/01/14 11:52:44;;;;;;;3.65;2.22;;;;;;;4.36;59.11;98838.09;5095895;28;20048;-69